sensor_id;sensor_type;location;lat;lon;timestamp;P1;durP1;ratioP1;P2;durP2;ratioP2
17965;SDS011;9108;53.204;10.424;2023-01-09T00:00:38;6.10;;;3.40;;
17965;SDS011;9108;53.204;10.424;2023-01-09T00:03:05;8.13;;;3.77;;
17965;SDS011;9108;53.204;10.424;2023-01-09T00:05:32;7.63;;;4.00;;
17965;SDS011;9108;53.204;10.424;2023-01-09T00:07:59;7.97;;;3.80;;
17965;SDS011;9108;53.204;10.424;2023-01-09T00:10:26;9.13;;;4.43;;
17965;SDS011;9108;53.204;10.424;2023-01-09T00:12:54;9.03;;;4.10;;
17965;SDS011;9108;53.204;10.424;2023-01-09T00:15:21;7.60;;;3.60;;
17965;SDS011;9108;53.204;10.424;2023-01-09T00:17:49;8.00;;;3.67;;
17965;SDS011;9108;53.204;10.424;2023-01-09T00:20:17;9.63;;;3.50;;
17965;SDS011;9108;53.204;10.424;2023-01-09T00:22:44;8.20;;;3.60;;
17965;SDS011;9108;53.204;10.424;2023-01-09T00:25:11;10.83;;;4.00;;
17965;SDS011;9108;53.204;10.424;2023-01-09T00:27:38;9.30;;;4.07;;
17965;SDS011;9108;53.204;10.424;2023-01-09T00:30:06;14.23;;;4.97;;
17965;SDS011;9108;53.204;10.424;2023-01-09T00:32:33;7.03;;;4.03;;
17965;SDS011;9108;53.204;10.424;2023-01-09T00:35:01;6.97;;;3.43;;
17965;SDS011;9108;53.204;10.424;2023-01-09T00:37:29;7.33;;;3.47;;
17965;SDS011;9108;53.204;10.424;2023-01-09T00:39:56;7.23;;;3.80;;
17965;SDS011;9108;53.204;10.424;2023-01-09T00:42:24;6.80;;;3.90;;
17965;SDS011;9108;53.204;10.424;2023-01-09T00:44:53;5.37;;;3.37;;
17965;SDS011;9108;53.204;10.424;2023-01-09T00:47:23;6.87;;;3.60;;
17965;SDS011;9108;53.204;10.424;2023-01-09T00:49:53;6.73;;;3.50;;
17965;SDS011;9108;53.204;10.424;2023-01-09T00:52:22;6.63;;;3.43;;
17965;SDS011;9108;53.204;10.424;2023-01-09T00:54:49;6.87;;;3.43;;
17965;SDS011;9108;53.204;10.424;2023-01-09T00:57:16;6.40;;;3.60;;
17965;SDS011;9108;53.204;10.424;2023-01-09T00:59:43;9.27;;;4.37;;
17965;SDS011;9108;53.204;10.424;2023-01-09T01:02:11;6.23;;;4.00;;
17965;SDS011;9108;53.204;10.424;2023-01-09T01:04:38;9.73;;;4.37;;
17965;SDS011;9108;53.204;10.424;2023-01-09T01:07:24;7.77;;;4.70;;
17965;SDS011;9108;53.204;10.424;2023-01-09T01:10:03;10.20;;;4.80;;
17965;SDS011;9108;53.204;10.424;2023-01-09T01:12:31;8.60;;;4.93;;
17965;SDS011;9108;53.204;10.424;2023-01-09T01:14:58;9.17;;;4.83;;
17965;SDS011;9108;53.204;10.424;2023-01-09T01:17:25;11.40;;;5.43;;
17965;SDS011;9108;53.204;10.424;2023-01-09T01:19:52;8.90;;;4.90;;
17965;SDS011;9108;53.204;10.424;2023-01-09T01:22:20;9.40;;;5.20;;
17965;SDS011;9108;53.204;10.424;2023-01-09T01:24:48;8.43;;;5.20;;
17965;SDS011;9108;53.204;10.424;2023-01-09T01:27:15;9.13;;;4.77;;
17965;SDS011;9108;53.204;10.424;2023-01-09T01:29:42;8.80;;;4.70;;
17965;SDS011;9108;53.204;10.424;2023-01-09T01:32:10;7.57;;;4.60;;
17965;SDS011;9108;53.204;10.424;2023-01-09T01:34:37;11.07;;;5.40;;
17965;SDS011;9108;53.204;10.424;2023-01-09T01:37:04;13.37;;;5.80;;
17965;SDS011;9108;53.204;10.424;2023-01-09T01:39:31;10.07;;;6.10;;
17965;SDS011;9108;53.204;10.424;2023-01-09T01:42:00;10.90;;;6.23;;
17965;SDS011;9108;53.204;10.424;2023-01-09T01:47:14;11.57;;;6.13;;
17965;SDS011;9108;53.204;10.424;2023-01-09T01:49:44;13.93;;;6.10;;
17965;SDS011;9108;53.204;10.424;2023-01-09T01:52:11;11.17;;;6.30;;
17965;SDS011;9108;53.204;10.424;2023-01-09T01:54:38;10.97;;;5.87;;
17965;SDS011;9108;53.204;10.424;2023-01-09T01:57:07;11.93;;;5.93;;
17965;SDS011;9108;53.204;10.424;2023-01-09T01:59:36;13.53;;;6.23;;
17965;SDS011;9108;53.204;10.424;2023-01-09T02:02:04;9.67;;;5.83;;
17965;SDS011;9108;53.204;10.424;2023-01-09T02:04:32;13.53;;;5.63;;
17965;SDS011;9108;53.204;10.424;2023-01-09T02:07:01;10.40;;;5.50;;
17965;SDS011;9108;53.204;10.424;2023-01-09T02:09:28;15.20;;;5.93;;
17965;SDS011;9108;53.204;10.424;2023-01-09T02:11:56;11.30;;;5.70;;
17965;SDS011;9108;53.204;10.424;2023-01-09T02:14:26;11.80;;;5.40;;
17965;SDS011;9108;53.204;10.424;2023-01-09T02:16:56;9.40;;;5.50;;
17965;SDS011;9108;53.204;10.424;2023-01-09T02:19:42;10.10;;;5.10;;
17965;SDS011;9108;53.204;10.424;2023-01-09T02:22:18;14.53;;;5.70;;
17965;SDS011;9108;53.204;10.424;2023-01-09T02:24:54;15.80;;;6.63;;
17965;SDS011;9108;53.204;10.424;2023-01-09T02:32:58;11.77;;;6.10;;
17965;SDS011;9108;53.204;10.424;2023-01-09T02:35:34;10.93;;;5.50;;
17965;SDS011;9108;53.204;10.424;2023-01-09T02:38:07;9.80;;;5.40;;
17965;SDS011;9108;53.204;10.424;2023-01-09T02:40:37;10.00;;;5.50;;
17965;SDS011;9108;53.204;10.424;2023-01-09T02:43:05;12.23;;;4.80;;
17965;SDS011;9108;53.204;10.424;2023-01-09T02:45:34;8.03;;;4.50;;
17965;SDS011;9108;53.204;10.424;2023-01-09T02:48:02;9.87;;;5.37;;
17965;SDS011;9108;53.204;10.424;2023-01-09T02:50:30;8.17;;;4.53;;
17965;SDS011;9108;53.204;10.424;2023-01-09T02:53:09;8.70;;;4.20;;
17965;SDS011;9108;53.204;10.424;2023-01-09T02:58:29;6.97;;;3.90;;
17965;SDS011;9108;53.204;10.424;2023-01-09T03:01:00;9.80;;;4.20;;
17965;SDS011;9108;53.204;10.424;2023-01-09T03:03:33;8.73;;;3.93;;
17965;SDS011;9108;53.204;10.424;2023-01-09T03:06:03;6.83;;;3.97;;
17965;SDS011;9108;53.204;10.424;2023-01-09T03:08:34;8.23;;;4.00;;
17965;SDS011;9108;53.204;10.424;2023-01-09T03:11:04;6.10;;;3.83;;
17965;SDS011;9108;53.204;10.424;2023-01-09T03:13:33;5.63;;;3.67;;
17965;SDS011;9108;53.204;10.424;2023-01-09T03:16:03;7.20;;;3.67;;
17965;SDS011;9108;53.204;10.424;2023-01-09T03:18:33;9.23;;;4.00;;
17965;SDS011;9108;53.204;10.424;2023-01-09T03:21:02;8.87;;;3.90;;
17965;SDS011;9108;53.204;10.424;2023-01-09T03:23:43;5.43;;;3.67;;
17965;SDS011;9108;53.204;10.424;2023-01-09T03:26:10;5.27;;;3.40;;
17965;SDS011;9108;53.204;10.424;2023-01-09T03:28:38;5.47;;;3.40;;
17965;SDS011;9108;53.204;10.424;2023-01-09T03:31:05;10.53;;;3.60;;
17965;SDS011;9108;53.204;10.424;2023-01-09T03:33:36;7.93;;;3.50;;
17965;SDS011;9108;53.204;10.424;2023-01-09T03:36:16;8.47;;;3.20;;
17965;SDS011;9108;53.204;10.424;2023-01-09T03:39:14;6.43;;;3.27;;
17965;SDS011;9108;53.204;10.424;2023-01-09T03:41:41;5.90;;;2.83;;
17965;SDS011;9108;53.204;10.424;2023-01-09T03:44:08;5.13;;;2.80;;
17965;SDS011;9108;53.204;10.424;2023-01-09T03:47:05;7.13;;;2.73;;
17965;SDS011;9108;53.204;10.424;2023-01-09T03:49:34;8.40;;;3.03;;
17965;SDS011;9108;53.204;10.424;2023-01-09T03:52:04;6.70;;;2.77;;
17965;SDS011;9108;53.204;10.424;2023-01-09T03:54:34;5.13;;;2.60;;
17965;SDS011;9108;53.204;10.424;2023-01-09T03:57:12;7.33;;;2.83;;
17965;SDS011;9108;53.204;10.424;2023-01-09T03:59:43;5.50;;;2.40;;
17965;SDS011;9108;53.204;10.424;2023-01-09T04:02:12;5.87;;;2.47;;
17965;SDS011;9108;53.204;10.424;2023-01-09T04:04:42;5.07;;;2.30;;
17965;SDS011;9108;53.204;10.424;2023-01-09T04:07:10;6.80;;;2.40;;
17965;SDS011;9108;53.204;10.424;2023-01-09T04:09:37;5.93;;;1.93;;
17965;SDS011;9108;53.204;10.424;2023-01-09T04:12:07;7.47;;;2.23;;
17965;SDS011;9108;53.204;10.424;2023-01-09T04:14:36;3.97;;;1.87;;
17965;SDS011;9108;53.204;10.424;2023-01-09T04:17:07;2.80;;;1.60;;
17965;SDS011;9108;53.204;10.424;2023-01-09T04:19:41;5.07;;;1.80;;
17965;SDS011;9108;53.204;10.424;2023-01-09T04:22:09;4.20;;;1.80;;
17965;SDS011;9108;53.204;10.424;2023-01-09T04:24:36;3.37;;;1.60;;
17965;SDS011;9108;53.204;10.424;2023-01-09T04:27:03;5.07;;;1.70;;
17965;SDS011;9108;53.204;10.424;2023-01-09T04:29:30;6.43;;;1.63;;
17965;SDS011;9108;53.204;10.424;2023-01-09T04:31:57;3.27;;;2.00;;
17965;SDS011;9108;53.204;10.424;2023-01-09T04:34:24;3.17;;;1.73;;
17965;SDS011;9108;53.204;10.424;2023-01-09T04:36:53;2.60;;;1.50;;
17965;SDS011;9108;53.204;10.424;2023-01-09T04:39:21;2.33;;;1.33;;
17965;SDS011;9108;53.204;10.424;2023-01-09T04:41:48;6.00;;;1.40;;
17965;SDS011;9108;53.204;10.424;2023-01-09T04:44:15;3.37;;;1.73;;
17965;SDS011;9108;53.204;10.424;2023-01-09T04:46:43;3.17;;;1.30;;
17965;SDS011;9108;53.204;10.424;2023-01-09T04:49:10;3.80;;;1.40;;
17965;SDS011;9108;53.204;10.424;2023-01-09T04:51:37;3.20;;;1.10;;
17965;SDS011;9108;53.204;10.424;2023-01-09T04:54:05;4.00;;;1.20;;
17965;SDS011;9108;53.204;10.424;2023-01-09T04:56:33;4.77;;;1.33;;
17965;SDS011;9108;53.204;10.424;2023-01-09T04:59:00;1.97;;;0.90;;
17965;SDS011;9108;53.204;10.424;2023-01-09T05:01:27;4.17;;;1.30;;
17965;SDS011;9108;53.204;10.424;2023-01-09T05:03:54;1.50;;;0.90;;
17965;SDS011;9108;53.204;10.424;2023-01-09T05:06:21;2.03;;;1.10;;
17965;SDS011;9108;53.204;10.424;2023-01-09T05:08:48;3.27;;;1.00;;
17965;SDS011;9108;53.204;10.424;2023-01-09T05:11:17;3.87;;;1.23;;
17965;SDS011;9108;53.204;10.424;2023-01-09T05:13:44;2.70;;;1.37;;
17965;SDS011;9108;53.204;10.424;2023-01-09T05:16:11;2.97;;;1.33;;
17965;SDS011;9108;53.204;10.424;2023-01-09T05:18:38;4.07;;;1.90;;
17965;SDS011;9108;53.204;10.424;2023-01-09T05:21:05;11.77;;;4.40;;
17965;SDS011;9108;53.204;10.424;2023-01-09T05:23:32;15.57;;;5.50;;
17965;SDS011;9108;53.204;10.424;2023-01-09T05:26:00;31.70;;;12.77;;
17965;SDS011;9108;53.204;10.424;2023-01-09T05:28:29;13.23;;;9.90;;
17965;SDS011;9108;53.204;10.424;2023-01-09T05:30:56;5.33;;;1.50;;
17965;SDS011;9108;53.204;10.424;2023-01-09T05:33:24;5.57;;;2.23;;
17965;SDS011;9108;53.204;10.424;2023-01-09T05:35:51;4.57;;;3.67;;
17965;SDS011;9108;53.204;10.424;2023-01-09T05:38:18;2.83;;;1.53;;
17965;SDS011;9108;53.204;10.424;2023-01-09T05:40:45;6.23;;;3.30;;
17965;SDS011;9108;53.204;10.424;2023-01-09T05:43:12;3.63;;;2.23;;
17965;SDS011;9108;53.204;10.424;2023-01-09T05:45:41;3.73;;;1.90;;
17965;SDS011;9108;53.204;10.424;2023-01-09T05:48:08;7.67;;;2.30;;
17965;SDS011;9108;53.204;10.424;2023-01-09T05:50:36;5.10;;;2.03;;
17965;SDS011;9108;53.204;10.424;2023-01-09T05:53:03;6.77;;;2.70;;
17965;SDS011;9108;53.204;10.424;2023-01-09T05:55:30;4.67;;;2.50;;
17965;SDS011;9108;53.204;10.424;2023-01-09T05:57:57;5.73;;;2.40;;
17965;SDS011;9108;53.204;10.424;2023-01-09T06:00:27;3.80;;;2.27;;
17965;SDS011;9108;53.204;10.424;2023-01-09T06:02:55;3.67;;;2.00;;
17965;SDS011;9108;53.204;10.424;2023-01-09T06:05:22;4.23;;;1.90;;
17965;SDS011;9108;53.204;10.424;2023-01-09T06:07:52;4.37;;;2.10;;
17965;SDS011;9108;53.204;10.424;2023-01-09T06:10:22;4.67;;;1.97;;
17965;SDS011;9108;53.204;10.424;2023-01-09T06:12:51;3.57;;;1.90;;
17965;SDS011;9108;53.204;10.424;2023-01-09T06:15:19;3.67;;;2.00;;
17965;SDS011;9108;53.204;10.424;2023-01-09T06:17:49;3.33;;;1.97;;
17965;SDS011;9108;53.204;10.424;2023-01-09T06:20:26;7.43;;;2.10;;
17965;SDS011;9108;53.204;10.424;2023-01-09T06:22:53;4.63;;;2.10;;
17965;SDS011;9108;53.204;10.424;2023-01-09T06:25:21;4.47;;;2.30;;
17965;SDS011;9108;53.204;10.424;2023-01-09T06:27:50;5.10;;;2.40;;
17965;SDS011;9108;53.204;10.424;2023-01-09T06:30:22;3.87;;;2.33;;
17965;SDS011;9108;53.204;10.424;2023-01-09T06:32:55;3.83;;;2.60;;
17965;SDS011;9108;53.204;10.424;2023-01-09T06:35:26;6.83;;;2.43;;
17965;SDS011;9108;53.204;10.424;2023-01-09T06:40:48;4.77;;;2.30;;
17965;SDS011;9108;53.204;10.424;2023-01-09T06:43:23;4.33;;;2.33;;
17965;SDS011;9108;53.204;10.424;2023-01-09T06:45:52;4.43;;;2.50;;
17965;SDS011;9108;53.204;10.424;2023-01-09T06:48:20;4.73;;;2.57;;
17965;SDS011;9108;53.204;10.424;2023-01-09T06:50:59;5.87;;;2.50;;
17965;SDS011;9108;53.204;10.424;2023-01-09T06:53:44;3.60;;;2.10;;
17965;SDS011;9108;53.204;10.424;2023-01-09T06:56:24;3.47;;;2.20;;
17965;SDS011;9108;53.204;10.424;2023-01-09T07:05:11;5.37;;;2.17;;
17965;SDS011;9108;53.204;10.424;2023-01-09T07:08:18;4.03;;;1.90;;
17965;SDS011;9108;53.204;10.424;2023-01-09T07:10:58;4.03;;;2.07;;
17965;SDS011;9108;53.204;10.424;2023-01-09T07:16:55;4.27;;;2.20;;
17965;SDS011;9108;53.204;10.424;2023-01-09T07:19:23;6.53;;;2.13;;
17965;SDS011;9108;53.204;10.424;2023-01-09T07:25:01;5.63;;;2.27;;
17965;SDS011;9108;53.204;10.424;2023-01-09T07:27:30;4.27;;;2.23;;
17965;SDS011;9108;53.204;10.424;2023-01-09T07:33:13;3.37;;;2.00;;
17965;SDS011;9108;53.204;10.424;2023-01-09T07:38:22;4.77;;;2.70;;
17965;SDS011;9108;53.204;10.424;2023-01-09T07:38:49;5.77;;;2.63;;
17965;SDS011;9108;53.204;10.424;2023-01-09T07:56:41;8.87;;;4.60;;
17965;SDS011;9108;53.204;10.424;2023-01-09T07:59:29;7.63;;;4.10;;
17965;SDS011;9108;53.204;10.424;2023-01-09T08:08:31;11.93;;;5.53;;
17965;SDS011;9108;53.204;10.424;2023-01-09T08:11:13;8.53;;;4.87;;
17965;SDS011;9108;53.204;10.424;2023-01-09T08:13:44;11.37;;;4.63;;
17965;SDS011;9108;53.204;10.424;2023-01-09T08:19:09;14.10;;;6.07;;
17965;SDS011;9108;53.204;10.424;2023-01-09T08:21:41;18.77;;;6.47;;
17965;SDS011;9108;53.204;10.424;2023-01-09T08:27:19;16.57;;;7.20;;
17965;SDS011;9108;53.204;10.424;2023-01-09T08:29:54;13.13;;;6.47;;
17965;SDS011;9108;53.204;10.424;2023-01-09T08:35:31;12.67;;;6.70;;
17965;SDS011;9108;53.204;10.424;2023-01-09T08:41:06;22.00;;;8.27;;
17965;SDS011;9108;53.204;10.424;2023-01-09T08:43:59;26.30;;;9.57;;
17965;SDS011;9108;53.204;10.424;2023-01-09T08:56:02;18.37;;;7.87;;
17965;SDS011;9108;53.204;10.424;2023-01-09T08:59:08;16.13;;;7.53;;
17965;SDS011;9108;53.204;10.424;2023-01-09T09:02:06;16.60;;;7.50;;
17965;SDS011;9108;53.204;10.424;2023-01-09T09:07:03;18.93;;;7.00;;
17965;SDS011;9108;53.204;10.424;2023-01-09T09:08:28;17.77;;;7.43;;
17965;SDS011;9108;53.204;10.424;2023-01-09T09:10:57;21.03;;;7.50;;
17965;SDS011;9108;53.204;10.424;2023-01-09T09:19:40;19.40;;;6.70;;
17965;SDS011;9108;53.204;10.424;2023-01-09T09:25:18;16.17;;;6.43;;
17965;SDS011;9108;53.204;10.424;2023-01-09T09:27:52;16.67;;;5.83;;
17965;SDS011;9108;53.204;10.424;2023-01-09T09:30:33;15.60;;;5.80;;
17965;SDS011;9108;53.204;10.424;2023-01-09T09:33:21;15.17;;;6.23;;
17965;SDS011;9108;53.204;10.424;2023-01-09T09:42:01;15.40;;;6.00;;
17965;SDS011;9108;53.204;10.424;2023-01-09T09:45:39;12.30;;;5.63;;
17965;SDS011;9108;53.204;10.424;2023-01-09T09:47:52;19.97;;;5.97;;
17965;SDS011;9108;53.204;10.424;2023-01-09T09:50:27;18.23;;;5.90;;
17965;SDS011;9108;53.204;10.424;2023-01-09T09:56:14;16.37;;;6.13;;
17965;SDS011;9108;53.204;10.424;2023-01-09T10:14:30;17.53;;;4.43;;
17965;SDS011;9108;53.204;10.424;2023-01-09T10:23:35;13.60;;;4.53;;
17965;SDS011;9108;53.204;10.424;2023-01-09T10:47:33;11.47;;;4.00;;
17965;SDS011;9108;53.204;10.424;2023-01-09T11:53:39;8.93;;;2.80;;
17965;SDS011;9108;53.204;10.424;2023-01-09T11:56:25;10.37;;;2.67;;
17965;SDS011;9108;53.204;10.424;2023-01-09T11:59:34;12.20;;;2.23;;
17965;SDS011;9108;53.204;10.424;2023-01-09T12:05:36;7.47;;;2.47;;
17965;SDS011;9108;53.204;10.424;2023-01-09T12:17:09;7.13;;;2.40;;
17965;SDS011;9108;53.204;10.424;2023-01-09T12:22:59;5.10;;;2.70;;
17965;SDS011;9108;53.204;10.424;2023-01-09T12:25:34;9.67;;;2.90;;
17965;SDS011;9108;53.204;10.424;2023-01-09T12:43:24;9.03;;;2.83;;
17965;SDS011;9108;53.204;10.424;2023-01-09T12:46:23;9.83;;;2.90;;
17965;SDS011;9108;53.204;10.424;2023-01-09T14:20:38;12.30;;;3.20;;
17965;SDS011;9108;53.204;10.424;2023-01-09T14:23:19;7.93;;;3.10;;
17965;SDS011;9108;53.204;10.424;2023-01-09T14:25:49;11.57;;;3.57;;
17965;SDS011;9108;53.204;10.424;2023-01-09T14:28:31;6.33;;;2.83;;
17965;SDS011;9108;53.204;10.424;2023-01-09T14:40:20;9.73;;;4.27;;
17965;SDS011;9108;53.204;10.424;2023-01-09T14:42:49;9.43;;;3.50;;
17965;SDS011;9108;53.204;10.424;2023-01-09T14:45:19;10.27;;;3.90;;
17965;SDS011;9108;53.204;10.424;2023-01-09T14:47:56;10.83;;;3.87;;
17965;SDS011;9108;53.204;10.424;2023-01-09T14:50:40;8.63;;;3.37;;
17965;SDS011;9108;53.204;10.424;2023-01-09T14:53:10;17.30;;;5.00;;
17965;SDS011;9108;53.204;10.424;2023-01-09T14:55:41;12.73;;;3.90;;
17965;SDS011;9108;53.204;10.424;2023-01-09T14:58:18;11.67;;;3.30;;
17965;SDS011;9108;53.204;10.424;2023-01-09T15:04:18;11.17;;;3.50;;
17965;SDS011;9108;53.204;10.424;2023-01-09T15:06:51;10.17;;;3.33;;
17965;SDS011;9108;53.204;10.424;2023-01-09T15:09:23;11.23;;;3.43;;
17965;SDS011;9108;53.204;10.424;2023-01-09T15:11:53;11.47;;;3.70;;
17965;SDS011;9108;53.204;10.424;2023-01-09T15:14:25;11.50;;;3.80;;
17965;SDS011;9108;53.204;10.424;2023-01-09T15:16:55;10.93;;;3.50;;
17965;SDS011;9108;53.204;10.424;2023-01-09T15:19:22;10.80;;;3.67;;
17965;SDS011;9108;53.204;10.424;2023-01-09T15:21:57;11.37;;;3.93;;
17965;SDS011;9108;53.204;10.424;2023-01-09T15:24:25;8.87;;;3.40;;
17965;SDS011;9108;53.204;10.424;2023-01-09T15:26:56;14.40;;;3.83;;
17965;SDS011;9108;53.204;10.424;2023-01-09T15:29:25;8.80;;;4.07;;
17965;SDS011;9108;53.204;10.424;2023-01-09T15:31:54;11.87;;;3.37;;
17965;SDS011;9108;53.204;10.424;2023-01-09T15:34:22;9.87;;;3.70;;
17965;SDS011;9108;53.204;10.424;2023-01-09T15:36:51;9.57;;;3.57;;
17965;SDS011;9108;53.204;10.424;2023-01-09T15:39:20;10.60;;;3.03;;
17965;SDS011;9108;53.204;10.424;2023-01-09T15:41:49;13.17;;;3.53;;
17965;SDS011;9108;53.204;10.424;2023-01-09T15:44:36;12.93;;;4.00;;
17965;SDS011;9108;53.204;10.424;2023-01-09T15:47:04;10.00;;;4.83;;
17965;SDS011;9108;53.204;10.424;2023-01-09T15:49:33;11.53;;;6.43;;
17965;SDS011;9108;53.204;10.424;2023-01-09T15:52:01;10.43;;;4.27;;
17965;SDS011;9108;53.204;10.424;2023-01-09T15:54:29;18.03;;;4.40;;
17965;SDS011;9108;53.204;10.424;2023-01-09T15:59:44;12.60;;;4.00;;
17965;SDS011;9108;53.204;10.424;2023-01-09T16:02:11;12.43;;;4.47;;
17965;SDS011;9108;53.204;10.424;2023-01-09T16:04:57;15.50;;;4.63;;
17965;SDS011;9108;53.204;10.424;2023-01-09T16:07:24;14.23;;;4.30;;
17965;SDS011;9108;53.204;10.424;2023-01-09T16:09:51;10.03;;;4.77;;
17965;SDS011;9108;53.204;10.424;2023-01-09T16:12:19;13.57;;;4.83;;
17965;SDS011;9108;53.204;10.424;2023-01-09T16:14:50;14.73;;;4.10;;
17965;SDS011;9108;53.204;10.424;2023-01-09T16:17:17;9.13;;;3.90;;
17965;SDS011;9108;53.204;10.424;2023-01-09T16:19:48;10.20;;;4.40;;
17965;SDS011;9108;53.204;10.424;2023-01-09T16:22:18;13.97;;;3.90;;
17965;SDS011;9108;53.204;10.424;2023-01-09T16:24:52;12.27;;;3.93;;
17965;SDS011;9108;53.204;10.424;2023-01-09T16:27:25;10.77;;;4.47;;
17965;SDS011;9108;53.204;10.424;2023-01-09T16:30:01;9.80;;;3.97;;
17965;SDS011;9108;53.204;10.424;2023-01-09T16:32:28;12.93;;;7.17;;
17965;SDS011;9108;53.204;10.424;2023-01-09T16:34:57;13.20;;;6.60;;
17965;SDS011;9108;53.204;10.424;2023-01-09T16:37:24;8.07;;;4.03;;
17965;SDS011;9108;53.204;10.424;2023-01-09T16:42:40;13.97;;;4.30;;
17965;SDS011;9108;53.204;10.424;2023-01-09T16:45:27;12.40;;;4.30;;
17965;SDS011;9108;53.204;10.424;2023-01-09T16:47:55;9.73;;;4.17;;
17965;SDS011;9108;53.204;10.424;2023-01-09T16:50:22;8.80;;;4.00;;
17965;SDS011;9108;53.204;10.424;2023-01-09T16:52:50;7.63;;;3.63;;
17965;SDS011;9108;53.204;10.424;2023-01-09T16:55:17;8.27;;;4.03;;
17965;SDS011;9108;53.204;10.424;2023-01-09T16:57:44;9.30;;;4.80;;
17965;SDS011;9108;53.204;10.424;2023-01-09T17:00:15;10.43;;;4.50;;
17965;SDS011;9108;53.204;10.424;2023-01-09T17:02:44;8.80;;;4.17;;
17965;SDS011;9108;53.204;10.424;2023-01-09T17:05:12;11.47;;;4.90;;
17965;SDS011;9108;53.204;10.424;2023-01-09T17:07:39;9.60;;;4.90;;
17965;SDS011;9108;53.204;10.424;2023-01-09T17:10:09;8.40;;;4.80;;
17965;SDS011;9108;53.204;10.424;2023-01-09T17:12:42;10.27;;;5.13;;
17965;SDS011;9108;53.204;10.424;2023-01-09T17:15:09;14.27;;;6.20;;
17965;SDS011;9108;53.204;10.424;2023-01-09T17:17:37;12.20;;;5.60;;
17965;SDS011;9108;53.204;10.424;2023-01-09T17:20:10;10.20;;;5.23;;
17965;SDS011;9108;53.204;10.424;2023-01-09T17:22:40;13.63;;;6.07;;
17965;SDS011;9108;53.204;10.424;2023-01-09T17:25:08;14.37;;;6.50;;
17965;SDS011;9108;53.204;10.424;2023-01-09T17:27:59;9.37;;;5.30;;
17965;SDS011;9108;53.204;10.424;2023-01-09T17:30:44;7.97;;;3.57;;
17965;SDS011;9108;53.204;10.424;2023-01-09T17:33:12;6.73;;;3.27;;
17965;SDS011;9108;53.204;10.424;2023-01-09T17:35:42;8.03;;;3.40;;
17965;SDS011;9108;53.204;10.424;2023-01-09T17:38:11;9.37;;;3.43;;
17965;SDS011;9108;53.204;10.424;2023-01-09T17:40:39;6.33;;;3.80;;
17965;SDS011;9108;53.204;10.424;2023-01-09T17:43:06;8.03;;;4.43;;
17965;SDS011;9108;53.204;10.424;2023-01-09T17:45:34;11.57;;;5.00;;
17965;SDS011;9108;53.204;10.424;2023-01-09T17:48:02;21.83;;;10.27;;
17965;SDS011;9108;53.204;10.424;2023-01-09T17:50:29;13.23;;;6.20;;
17965;SDS011;9108;53.204;10.424;2023-01-09T17:53:00;7.83;;;4.50;;
17965;SDS011;9108;53.204;10.424;2023-01-09T17:55:28;7.70;;;4.10;;
17965;SDS011;9108;53.204;10.424;2023-01-09T17:57:55;11.90;;;6.57;;
17965;SDS011;9108;53.204;10.424;2023-01-09T18:00:23;7.73;;;3.73;;
17965;SDS011;9108;53.204;10.424;2023-01-09T18:02:50;6.90;;;3.67;;
17965;SDS011;9108;53.204;10.424;2023-01-09T18:05:17;9.17;;;4.10;;
17965;SDS011;9108;53.204;10.424;2023-01-09T18:07:45;7.97;;;4.37;;
17965;SDS011;9108;53.204;10.424;2023-01-09T18:10:14;11.17;;;5.40;;
17965;SDS011;9108;53.204;10.424;2023-01-09T18:12:41;9.50;;;3.80;;
17965;SDS011;9108;53.204;10.424;2023-01-09T18:15:09;8.13;;;4.20;;
17965;SDS011;9108;53.204;10.424;2023-01-09T18:17:36;8.50;;;4.27;;
17965;SDS011;9108;53.204;10.424;2023-01-09T18:20:03;12.17;;;4.83;;
17965;SDS011;9108;53.204;10.424;2023-01-09T18:22:31;17.07;;;6.63;;
17965;SDS011;9108;53.204;10.424;2023-01-09T18:24:58;12.63;;;5.07;;
17965;SDS011;9108;53.204;10.424;2023-01-09T18:27:27;15.30;;;6.87;;
17965;SDS011;9108;53.204;10.424;2023-01-09T18:29:54;14.70;;;5.63;;
17965;SDS011;9108;53.204;10.424;2023-01-09T18:32:22;13.93;;;6.10;;
17965;SDS011;9108;53.204;10.424;2023-01-09T18:34:49;10.13;;;4.90;;
17965;SDS011;9108;53.204;10.424;2023-01-09T18:37:16;10.33;;;4.93;;
17965;SDS011;9108;53.204;10.424;2023-01-09T18:39:43;13.17;;;5.97;;
17965;SDS011;9108;53.204;10.424;2023-01-09T18:42:10;13.17;;;6.70;;
17965;SDS011;9108;53.204;10.424;2023-01-09T18:44:39;12.17;;;6.17;;
17965;SDS011;9108;53.204;10.424;2023-01-09T18:47:06;15.70;;;7.40;;
17965;SDS011;9108;53.204;10.424;2023-01-09T18:49:33;16.23;;;7.50;;
17965;SDS011;9108;53.204;10.424;2023-01-09T18:52:00;20.53;;;9.90;;
17965;SDS011;9108;53.204;10.424;2023-01-09T18:54:27;20.63;;;9.40;;
17965;SDS011;9108;53.204;10.424;2023-01-09T18:56:55;17.67;;;8.53;;
17965;SDS011;9108;53.204;10.424;2023-01-09T18:59:22;16.70;;;7.10;;
17965;SDS011;9108;53.204;10.424;2023-01-09T19:01:50;16.13;;;7.30;;
17965;SDS011;9108;53.204;10.424;2023-01-09T19:04:19;17.83;;;7.73;;
17965;SDS011;9108;53.204;10.424;2023-01-09T19:06:46;19.90;;;8.00;;
17965;SDS011;9108;53.204;10.424;2023-01-09T19:09:14;19.50;;;8.57;;
17965;SDS011;9108;53.204;10.424;2023-01-09T19:11:41;20.97;;;9.13;;
17965;SDS011;9108;53.204;10.424;2023-01-09T19:14:09;21.20;;;9.27;;
17965;SDS011;9108;53.204;10.424;2023-01-09T19:16:37;23.77;;;9.70;;
17965;SDS011;9108;53.204;10.424;2023-01-09T19:19:05;25.53;;;9.73;;
17965;SDS011;9108;53.204;10.424;2023-01-09T19:21:32;29.30;;;11.03;;
17965;SDS011;9108;53.204;10.424;2023-01-09T19:24:00;30.10;;;11.53;;
17965;SDS011;9108;53.204;10.424;2023-01-09T19:26:39;34.73;;;13.67;;
17965;SDS011;9108;53.204;10.424;2023-01-09T19:29:12;38.17;;;14.20;;
17965;SDS011;9108;53.204;10.424;2023-01-09T19:31:42;39.13;;;15.17;;
17965;SDS011;9108;53.204;10.424;2023-01-09T19:34:14;34.30;;;13.77;;
17965;SDS011;9108;53.204;10.424;2023-01-09T19:36:41;38.60;;;14.30;;
17965;SDS011;9108;53.204;10.424;2023-01-09T22:41:08;83.23;;;25.97;;
17965;SDS011;9108;53.204;10.424;2023-01-09T22:43:35;80.37;;;24.50;;
17965;SDS011;9108;53.204;10.424;2023-01-09T22:46:21;79.47;;;26.13;;
17965;SDS011;9108;53.204;10.424;2023-01-09T22:48:49;80.87;;;26.50;;
17965;SDS011;9108;53.204;10.424;2023-01-09T22:51:17;90.87;;;26.37;;
17965;SDS011;9108;53.204;10.424;2023-01-09T22:53:46;75.63;;;25.40;;
17965;SDS011;9108;53.204;10.424;2023-01-09T22:56:16;82.93;;;26.77;;
17965;SDS011;9108;53.204;10.424;2023-01-09T22:58:43;82.50;;;26.83;;
17965;SDS011;9108;53.204;10.424;2023-01-09T23:01:11;77.33;;;25.90;;
17965;SDS011;9108;53.204;10.424;2023-01-09T23:03:38;76.63;;;25.03;;
17965;SDS011;9108;53.204;10.424;2023-01-09T23:06:07;76.90;;;24.23;;
17965;SDS011;9108;53.204;10.424;2023-01-09T23:08:34;81.53;;;26.33;;
17965;SDS011;9108;53.204;10.424;2023-01-09T23:11:02;80.40;;;26.40;;
17965;SDS011;9108;53.204;10.424;2023-01-09T23:13:35;77.80;;;25.93;;
17965;SDS011;9108;53.204;10.424;2023-01-09T23:16:04;74.73;;;24.60;;
17965;SDS011;9108;53.204;10.424;2023-01-09T23:18:32;77.37;;;25.57;;
17965;SDS011;9108;53.204;10.424;2023-01-09T23:21:00;63.10;;;23.47;;
17965;SDS011;9108;53.204;10.424;2023-01-09T23:23:28;59.47;;;19.90;;
17965;SDS011;9108;53.204;10.424;2023-01-09T23:25:56;57.83;;;20.20;;
17965;SDS011;9108;53.204;10.424;2023-01-09T23:28:24;65.23;;;21.70;;
17965;SDS011;9108;53.204;10.424;2023-01-09T23:30:54;64.63;;;21.77;;
17965;SDS011;9108;53.204;10.424;2023-01-09T23:33:21;63.20;;;21.87;;
17965;SDS011;9108;53.204;10.424;2023-01-09T23:35:48;61.07;;;21.93;;
17965;SDS011;9108;53.204;10.424;2023-01-09T23:38:17;69.60;;;21.63;;
17965;SDS011;9108;53.204;10.424;2023-01-09T23:40:45;68.57;;;22.23;;
17965;SDS011;9108;53.204;10.424;2023-01-09T23:43:13;67.67;;;22.73;;
17965;SDS011;9108;53.204;10.424;2023-01-09T23:45:40;62.73;;;21.33;;